createdAt,value
2023-03-27T00:01:07.300Z,5.91
2023-03-27T00:03:33.971Z,5.73
2023-03-27T00:06:06.518Z,5.76
2023-03-27T00:08:33.678Z,5.80
2023-03-27T00:11:00.117Z,5.68
2023-03-27T00:13:26.867Z,5.64
2023-03-27T00:15:55.118Z,5.65
2023-03-27T00:18:21.611Z,5.74
2023-03-27T00:20:48.195Z,5.57
2023-03-27T00:23:14.963Z,5.70
2023-03-27T00:25:41.442Z,5.62
2023-03-27T00:28:07.886Z,5.52
2023-03-27T00:30:34.912Z,5.64
2023-03-27T00:33:01.862Z,5.62
2023-03-27T00:35:29.690Z,5.53
2023-03-27T00:37:56.656Z,5.55
2023-03-27T00:40:22.957Z,5.51
2023-03-27T00:42:51.701Z,5.50
2023-03-27T00:45:24.529Z,5.37
2023-03-27T00:47:55.421Z,5.33
2023-03-27T00:50:27.072Z,5.35
2023-03-27T00:53:00.330Z,5.27
2023-03-27T00:55:30.664Z,5.31
2023-03-27T00:58:03.603Z,5.30
2023-03-27T01:00:31.312Z,5.25
2023-03-27T01:03:01.044Z,5.39
2023-03-27T01:05:27.843Z,5.22
2023-03-27T01:08:01.073Z,5.30
2023-03-27T01:11:10.288Z,5.17
2023-03-27T01:13:54.574Z,5.16
2023-03-27T01:16:59.526Z,5.25
2023-03-27T01:19:54.148Z,5.07
2023-03-27T01:22:47.932Z,5.05
2023-03-27T01:25:38.420Z,5.11
2023-03-27T01:28:15.570Z,4.99
2023-03-27T01:31:13.471Z,4.97
2023-03-27T01:34:02.169Z,4.90
2023-03-27T01:37:03.712Z,4.97
2023-03-27T01:40:12.896Z,4.82
2023-03-27T01:43:06.470Z,4.88
2023-03-27T01:45:53.001Z,5.11
2023-03-27T01:48:43.066Z,4.86
2023-03-27T01:51:28.992Z,4.74
2023-03-27T01:53:57.922Z,4.66
2023-03-27T01:56:30.123Z,4.60
2023-03-27T01:59:06.872Z,4.62
2023-03-27T02:01:38.297Z,4.82
2023-03-27T02:04:09.622Z,4.64
2023-03-27T02:06:43.919Z,4.32
2023-03-27T02:09:21.748Z,4.36
2023-03-27T02:11:58.927Z,4.45
2023-03-27T02:14:30.545Z,4.38
2023-03-27T02:17:02.059Z,4.36
2023-03-27T02:19:35.709Z,4.41
2023-03-27T02:22:02.232Z,4.38
2023-03-27T02:24:28.536Z,4.32
2023-03-27T02:27:24.192Z,4.44
2023-03-27T02:29:57.227Z,4.38
2023-03-27T02:32:56.869Z,4.48
2023-03-27T02:35:33.075Z,4.58
2023-03-27T02:38:09.311Z,4.49
2023-03-27T02:40:47.255Z,4.45
2023-03-27T02:43:32.337Z,4.41
2023-03-27T02:46:08.804Z,4.35
2023-03-27T02:48:45.336Z,4.41
2023-03-27T02:51:20.712Z,4.36
2023-03-27T02:54:15.952Z,4.46
2023-03-27T02:57:05.247Z,4.45
2023-03-27T02:59:37.971Z,4.60
2023-03-27T03:02:08.926Z,4.40
2023-03-27T03:04:43.863Z,4.26
2023-03-27T03:07:10.532Z,4.40
2023-03-27T03:09:40.494Z,4.36
2023-03-27T03:12:07.586Z,4.33
2023-03-27T03:14:37.917Z,4.30
2023-03-27T03:17:04.455Z,4.21
2023-03-27T03:19:30.773Z,4.42
2023-03-27T03:21:57.164Z,4.43
2023-03-27T03:24:23.636Z,4.36
2023-03-27T03:26:50.364Z,4.59
2023-03-27T03:29:17.251Z,4.49
2023-03-27T03:31:43.850Z,4.39
2023-03-27T03:34:18.598Z,4.44
2023-03-27T03:36:46.663Z,4.43
2023-03-27T03:39:12.988Z,4.24
2023-03-27T03:41:39.432Z,4.30
2023-03-27T03:44:05.886Z,4.17
2023-03-27T03:46:32.588Z,4.27
2023-03-27T03:48:59.466Z,4.27
2023-03-27T03:51:26.607Z,4.13
2023-03-27T03:53:53.476Z,4.03
2023-03-27T03:56:19.951Z,4.01
2023-03-27T03:58:46.327Z,4.14
2023-03-27T04:01:12.730Z,4.06
2023-03-27T04:03:39.286Z,4.05
2023-03-27T04:06:06.179Z,3.95
2023-03-27T04:08:33.673Z,3.88
2023-03-27T04:11:00.207Z,3.71
2023-03-27T04:13:26.636Z,3.59
2023-03-27T04:15:52.988Z,3.66
2023-03-27T04:18:19.851Z,3.70
2023-03-27T04:20:47.180Z,3.46
2023-03-27T04:23:13.673Z,3.38
2023-03-27T04:25:40.267Z,3.26
2023-03-27T04:28:06.728Z,3.18
2023-03-27T04:30:33.034Z,3.09
2023-03-27T04:32:59.568Z,3.08
2023-03-27T04:35:26.188Z,3.00
2023-03-27T04:37:52.583Z,2.86
2023-03-27T04:40:19.026Z,3.13
2023-03-27T04:42:46.069Z,3.02
2023-03-27T04:45:17.539Z,2.91
2023-03-27T04:47:44.805Z,2.88
2023-03-27T04:50:11.597Z,2.89
2023-03-27T04:52:38.825Z,2.91
2023-03-27T04:55:06.175Z,2.75
2023-03-27T04:57:33.283Z,2.74
2023-03-27T05:00:00.134Z,2.91
2023-03-27T05:02:27.527Z,2.84
2023-03-27T05:04:56.763Z,2.68
2023-03-27T05:07:23.454Z,2.63
2023-03-27T05:09:49.920Z,2.53
2023-03-27T05:12:16.361Z,2.59
2023-03-27T05:14:42.839Z,2.49
2023-03-27T05:17:09.227Z,2.47
2023-03-27T05:19:35.752Z,2.41
2023-03-27T05:22:02.414Z,2.47
2023-03-27T05:24:28.739Z,2.45
2023-03-27T05:26:55.392Z,2.41
2023-03-27T05:29:21.930Z,2.35
2023-03-27T05:31:48.910Z,2.31
2023-03-27T05:34:15.578Z,2.18
2023-03-27T05:36:41.909Z,2.21
2023-03-27T05:39:08.543Z,2.20
2023-03-27T05:41:35.141Z,2.16
2023-03-27T05:44:01.770Z,2.20
2023-03-27T05:46:30.066Z,2.19
2023-03-27T05:48:56.693Z,2.25
2023-03-27T05:51:23.594Z,2.22
2023-03-27T05:53:50.006Z,2.28
2023-03-27T05:56:16.512Z,2.30
2023-03-27T05:58:43.021Z,2.20
2023-03-27T06:01:10.233Z,2.27
2023-03-27T06:03:37.838Z,2.34
2023-03-27T06:06:11.785Z,2.44
2023-03-27T06:08:38.617Z,2.43
2023-03-27T06:11:09.363Z,2.43
2023-03-27T06:13:37.286Z,2.57
2023-03-27T06:16:04.232Z,2.74
2023-03-27T06:18:30.731Z,2.93
2023-03-27T06:20:57.529Z,2.90
2023-03-27T06:23:24.622Z,2.83
2023-03-27T06:25:51.565Z,2.85
2023-03-27T06:28:17.889Z,2.88
2023-03-27T06:30:44.683Z,2.86
2023-03-27T06:33:11.015Z,2.99
2023-03-27T06:35:37.371Z,3.24
2023-03-27T06:38:05.192Z,3.43
2023-03-27T06:40:33.046Z,3.71
2023-03-27T06:43:10.298Z,3.65
2023-03-27T06:45:47.160Z,3.68
2023-03-27T06:48:19.249Z,3.66
2023-03-27T06:50:52.023Z,3.79
2023-03-27T06:53:27.166Z,4.16
2023-03-27T06:55:56.084Z,3.99
2023-03-27T06:58:23.100Z,4.00
2023-03-27T07:00:50.077Z,4.08
2023-03-27T07:03:18.428Z,4.09
2023-03-27T07:05:45.332Z,4.37
2023-03-27T07:10:48.715Z,4.30
2023-03-27T07:13:20.407Z,4.41
2023-03-27T07:15:46.896Z,4.66
2023-03-27T07:18:14.355Z,4.67
2023-03-27T07:20:41.205Z,4.88
2023-03-27T07:23:08.678Z,4.98
2023-03-27T07:25:35.300Z,5.13
2023-03-27T07:28:03.263Z,4.99
2023-03-27T07:30:31.916Z,5.11
2023-03-27T07:32:58.325Z,5.09
2023-03-27T07:35:25.852Z,5.24
2023-03-27T07:37:57.156Z,5.40
2023-03-27T07:40:36.938Z,5.60
2023-03-27T07:43:06.904Z,5.92
2023-03-27T07:45:34.880Z,6.20
2023-03-27T07:48:08.453Z,7.12
2023-03-27T07:50:35.549Z,7.11
2023-03-27T07:53:02.220Z,6.91
2023-03-27T07:55:28.746Z,6.89
2023-03-27T07:58:01.378Z,7.06
2023-03-27T08:00:30.076Z,7.07
2023-03-27T08:03:08.705Z,7.52
2023-03-27T08:05:36.444Z,7.29
2023-03-27T08:08:04.170Z,7.34
2023-03-27T08:10:30.732Z,7.20
2023-03-27T08:12:57.310Z,7.12
2023-03-27T08:15:24.551Z,6.99
2023-03-27T08:17:51.826Z,6.78
2023-03-27T08:20:18.545Z,6.95
2023-03-27T08:22:44.913Z,6.68
2023-03-27T08:25:11.888Z,6.56
2023-03-27T08:27:39.367Z,6.55
2023-03-27T08:30:07.757Z,6.70
2023-03-27T08:32:34.126Z,7.39
2023-03-27T08:35:00.639Z,7.36
2023-03-27T08:37:27.083Z,7.20
2023-03-27T08:39:53.428Z,6.71
2023-03-27T08:42:26.577Z,6.74
2023-03-27T08:44:55.293Z,6.71
2023-03-27T08:47:34.623Z,7.00
2023-03-27T08:50:05.681Z,6.80
2023-03-27T08:52:33.707Z,6.67
2023-03-27T08:55:33.480Z,6.51
2023-03-27T08:58:00.548Z,6.46
2023-03-27T09:00:34.159Z,6.67
2023-03-27T09:03:24.771Z,6.46
2023-03-27T09:06:08.521Z,6.65
2023-03-27T09:08:49.060Z,6.56
2023-03-27T09:11:32.748Z,6.29
2023-03-27T09:14:01.206Z,6.52
2023-03-27T09:16:43.843Z,6.26
2023-03-27T09:19:24.076Z,6.41
2023-03-27T09:21:57.232Z,6.72
2023-03-27T09:24:39.264Z,6.72
2023-03-27T09:27:20.546Z,6.53
2023-03-27T09:30:16.458Z,6.76
2023-03-27T09:32:43.088Z,6.93
2023-03-27T09:35:14.661Z,6.63
2023-03-27T09:37:41.594Z,6.75
2023-03-27T09:40:22.634Z,6.53
2023-03-27T09:42:52.036Z,6.55
2023-03-27T09:45:20.135Z,6.51
2023-03-27T09:47:57.098Z,7.14
2023-03-27T09:50:37.650Z,7.88
2023-03-27T09:53:12.953Z,9.05
2023-03-27T09:56:03.436Z,9.78
2023-03-27T09:58:37.336Z,10.60
2023-03-27T10:01:15.067Z,11.75
2023-03-27T10:03:46.098Z,12.23
2023-03-27T10:06:15.719Z,11.67
2023-03-27T10:08:46.193Z,11.11
2023-03-27T10:11:18.875Z,10.47
2023-03-27T10:13:51.175Z,9.83
2023-03-27T10:16:21.021Z,9.87
2023-03-27T10:18:50.194Z,9.98
2023-03-27T10:21:23.990Z,9.58
2023-03-27T10:23:50.521Z,9.06
2023-03-27T10:26:20.685Z,8.69
2023-03-27T10:28:52.157Z,9.67
2023-03-27T10:31:33.241Z,9.48
2023-03-27T10:34:06.805Z,9.97
2023-03-27T10:36:37.855Z,9.60
2023-03-27T10:39:10.404Z,9.46
2023-03-27T10:41:37.987Z,8.88
2023-03-27T10:44:13.518Z,8.69
2023-03-27T10:46:41.223Z,9.32
2023-03-27T10:49:10.793Z,9.85
2023-03-27T10:51:52.659Z,10.02
2023-03-27T10:54:39.164Z,9.61
2023-03-27T10:57:12.894Z,9.33
2023-03-27T10:59:52.349Z,9.54
2023-03-27T11:02:40.132Z,9.48
2023-03-27T11:05:23.959Z,9.31
2023-03-27T11:07:55.667Z,9.02
2023-03-27T11:10:34.197Z,9.20
2023-03-27T11:13:11.392Z,9.84
2023-03-27T11:15:42.376Z,11.17
2023-03-27T11:18:17.676Z,10.86
2023-03-27T11:20:49.863Z,11.26
2023-03-27T11:23:36.756Z,11.31
2023-03-27T11:26:06.016Z,11.09
2023-03-27T11:29:03.276Z,10.56
2023-03-27T11:31:43.450Z,10.01
2023-03-27T11:34:29.803Z,9.79
2023-03-27T11:37:01.915Z,10.28
2023-03-27T11:39:35.227Z,11.42
2023-03-27T11:42:13.358Z,12.28
2023-03-27T11:44:39.870Z,11.75
2023-03-27T11:47:27.036Z,11.64
2023-03-27T11:50:38.430Z,11.74
2023-03-27T11:53:33.849Z,11.47
2023-03-27T11:56:22.289Z,11.48
2023-03-27T11:59:16.641Z,11.03
2023-03-27T12:02:16.104Z,10.76
2023-03-27T12:05:18.844Z,10.62
2023-03-27T12:08:01.817Z,10.28
2023-03-27T12:10:32.481Z,9.86
2023-03-27T12:13:41.744Z,9.53
2023-03-27T12:16:34.282Z,8.64
2023-03-27T12:19:28.541Z,8.19
2023-03-27T12:22:35.027Z,7.77
2023-03-27T12:25:38.047Z,7.52
2023-03-27T12:28:33.074Z,7.46
2023-03-27T12:31:27.443Z,7.55
2023-03-27T12:34:02.761Z,7.87
2023-03-27T12:36:36.113Z,8.63
2023-03-27T12:39:12.981Z,9.49
2023-03-27T12:41:44.142Z,9.82
2023-03-27T12:44:14.600Z,10.97
2023-03-27T12:46:42.191Z,12.56
2023-03-27T12:49:08.722Z,12.80
2023-03-27T12:51:42.283Z,12.66
2023-03-27T12:54:32.270Z,12.51
2023-03-27T12:57:14.106Z,12.79
2023-03-27T12:59:52.650Z,12.97
2023-03-27T13:02:45.822Z,13.27
2023-03-27T13:05:46.829Z,13.38
2023-03-27T13:08:47.300Z,12.81
2023-03-27T13:11:38.365Z,12.54
2023-03-27T13:14:25.353Z,12.33
2023-03-27T13:16:57.564Z,12.43
2023-03-27T13:19:50.814Z,11.85
2023-03-27T13:22:38.577Z,11.33
2023-03-27T13:25:23.310Z,10.98
2023-03-27T13:28:26.975Z,10.81
2023-03-27T13:30:55.999Z,10.75
2023-03-27T13:33:31.274Z,10.98
2023-03-27T13:35:57.804Z,11.51
2023-03-27T13:38:53.086Z,11.93
2023-03-27T13:41:44.690Z,11.54
2023-03-27T13:44:18.066Z,11.19
2023-03-27T13:47:09.532Z,11.72
2023-03-27T13:49:41.565Z,11.72
2023-03-27T13:52:41.206Z,11.88
2023-03-27T13:55:17.353Z,12.04
2023-03-27T13:57:57.085Z,12.24
2023-03-27T14:00:48.729Z,12.15
2023-03-27T14:04:09.208Z,12.56
2023-03-27T14:06:54.521Z,12.69
2023-03-27T14:10:02.019Z,13.53
2023-03-27T14:13:11.973Z,13.48
2023-03-27T14:16:00.113Z,13.48
2023-03-27T14:18:49.986Z,13.41
2023-03-27T14:21:31.471Z,13.43
2023-03-27T14:24:18.302Z,13.17
2023-03-27T14:26:44.739Z,12.80
2023-03-27T14:29:11.442Z,11.99
2023-03-27T14:31:37.922Z,11.43
2023-03-27T14:34:16.654Z,10.87
2023-03-27T14:36:43.364Z,10.29
2023-03-27T14:39:14.530Z,9.65
2023-03-27T14:41:58.208Z,8.86
2023-03-27T14:44:26.851Z,8.09
2023-03-27T14:47:07.520Z,7.74
2023-03-27T14:49:38.643Z,7.76
2023-03-27T14:52:08.063Z,7.96
2023-03-27T14:54:44.668Z,7.91
2023-03-27T14:57:20.351Z,8.05
2023-03-27T14:59:47.202Z,8.82
2023-03-27T15:02:21.723Z,9.50
2023-03-27T15:04:48.240Z,9.91
2023-03-27T15:07:21.352Z,9.94
2023-03-27T15:10:16.843Z,9.71
2023-03-27T15:12:44.464Z,9.89
2023-03-27T15:15:36.267Z,9.73
2023-03-27T15:18:03.438Z,9.36
2023-03-27T15:20:32.331Z,9.67
2023-03-27T15:23:16.866Z,10.42
2023-03-27T15:25:56.824Z,11.32
2023-03-27T15:28:58.482Z,11.34
2023-03-27T15:31:24.943Z,11.21
2023-03-27T15:33:58.571Z,10.84
2023-03-27T15:36:24.956Z,11.20
2023-03-27T15:38:51.450Z,11.23
2023-03-27T15:41:17.720Z,11.04
2023-03-27T15:43:44.359Z,10.65
2023-03-27T15:46:16.579Z,10.20
2023-03-27T15:48:47.776Z,9.94
2023-03-27T15:51:20.097Z,9.31
2023-03-27T15:53:48.682Z,8.41
2023-03-27T15:56:26.053Z,7.78
2023-03-27T15:58:53.806Z,7.35
2023-03-27T16:01:30.901Z,6.98
2023-03-27T16:04:02.443Z,6.71
2023-03-27T16:06:34.294Z,6.50
2023-03-27T16:09:01.449Z,6.48
2023-03-27T16:11:33.245Z,6.32
2023-03-27T16:13:59.588Z,6.21
2023-03-27T16:16:32.125Z,6.16
2023-03-27T16:19:01.996Z,6.12
2023-03-27T16:21:28.473Z,6.18
2023-03-27T16:23:54.961Z,5.89
2023-03-27T16:26:25.085Z,6.06
2023-03-27T16:28:51.548Z,6.06
2023-03-27T16:31:19.817Z,6.07
2023-03-27T16:33:46.502Z,5.98
2023-03-27T16:36:18.154Z,5.83
2023-03-27T16:38:44.637Z,5.92
2023-03-27T16:41:13.154Z,5.98
2023-03-27T16:43:40.096Z,6.11
2023-03-27T16:46:10.764Z,6.21
2023-03-27T16:48:37.428Z,6.32
2023-03-27T16:51:04.039Z,6.78
2023-03-27T16:53:30.501Z,6.81
2023-03-27T16:55:56.976Z,6.71
2023-03-27T16:58:23.665Z,6.65
2023-03-27T17:00:50.041Z,6.65
2023-03-27T17:03:16.363Z,6.51
2023-03-27T17:05:42.974Z,6.47
2023-03-27T17:08:10.619Z,6.28
2023-03-27T17:10:37.334Z,6.06
2023-03-27T17:13:03.648Z,5.93
2023-03-27T17:15:30.086Z,5.83
2023-03-27T17:17:56.672Z,5.82
2023-03-27T17:20:23.078Z,5.74
2023-03-27T17:22:49.480Z,5.71
2023-03-27T17:25:15.969Z,5.97
2023-03-27T17:27:42.284Z,5.95
2023-03-27T17:30:09.260Z,5.83
2023-03-27T17:32:35.790Z,5.76
2023-03-27T17:35:02.176Z,5.53
2023-03-27T17:37:28.621Z,5.63
2023-03-27T17:39:55.258Z,5.40
2023-03-27T17:42:22.369Z,5.61
2023-03-27T17:44:48.786Z,5.39
2023-03-27T17:47:15.094Z,5.37
2023-03-27T17:49:41.548Z,5.21
2023-03-27T17:52:07.875Z,5.18
2023-03-27T17:54:34.457Z,5.16
2023-03-27T17:57:00.846Z,4.99
2023-03-27T17:59:27.190Z,4.90
2023-03-27T18:01:53.946Z,4.88
2023-03-27T18:04:20.527Z,4.92
2023-03-27T18:06:47.086Z,4.78
2023-03-27T18:09:13.497Z,4.81
2023-03-27T18:11:39.853Z,5.09
2023-03-27T18:14:06.351Z,5.11
2023-03-27T18:16:32.867Z,4.93
2023-03-27T18:18:59.333Z,4.76
2023-03-27T18:21:25.654Z,4.80
2023-03-27T18:23:53.912Z,4.64
2023-03-27T18:26:20.338Z,5.14
2023-03-27T18:28:46.652Z,4.86
2023-03-27T18:31:13.217Z,4.94
2023-03-27T18:33:39.585Z,4.80
2023-03-27T18:36:06.872Z,4.90
2023-03-27T18:38:33.511Z,4.71
2023-03-27T18:41:00.319Z,4.87
2023-03-27T18:43:27.071Z,4.94
2023-03-27T18:46:01.488Z,5.11
2023-03-27T18:48:28.703Z,5.13
2023-03-27T18:51:03.752Z,5.29
2023-03-27T18:53:30.735Z,4.95
2023-03-27T18:55:57.944Z,4.64
2023-03-27T18:58:24.930Z,4.34
2023-03-27T19:00:51.490Z,4.19
2023-03-27T19:03:20.289Z,4.33
2023-03-27T19:05:47.816Z,4.35
2023-03-27T19:08:15.275Z,4.28
2023-03-27T19:10:42.120Z,4.41
2023-03-27T19:13:08.560Z,4.26
2023-03-27T19:15:35.710Z,4.34
2023-03-27T19:18:02.607Z,4.06
2023-03-27T19:20:29.165Z,3.97
2023-03-27T19:22:55.607Z,3.93
2023-03-27T19:25:22.239Z,3.89
2023-03-27T19:27:48.818Z,3.89
2023-03-27T19:30:15.370Z,4.09
2023-03-27T19:32:41.793Z,4.45
2023-03-27T19:35:08.570Z,4.43
2023-03-27T19:37:35.043Z,4.22
2023-03-27T19:40:01.345Z,4.16
2023-03-27T19:42:28.493Z,4.05
2023-03-27T19:44:56.607Z,4.50
2023-03-27T19:47:23.254Z,4.77
2023-03-27T19:49:49.568Z,4.39
2023-03-27T19:52:16.077Z,4.33
2023-03-27T19:54:43.112Z,4.72
2023-03-27T19:57:09.426Z,4.31
2023-03-27T19:59:35.852Z,4.03
2023-03-27T20:02:02.237Z,3.87
2023-03-27T20:04:28.679Z,3.86
2023-03-27T20:06:54.998Z,3.73
2023-03-27T20:09:21.310Z,3.74
2023-03-27T20:11:47.752Z,3.65
2023-03-27T20:14:14.256Z,3.72
2023-03-27T20:16:40.949Z,3.77
2023-03-27T20:19:07.683Z,3.95
2023-03-27T20:21:38.866Z,3.81
2023-03-27T20:24:07.329Z,3.82
2023-03-27T20:26:33.648Z,3.62
2023-03-27T20:28:59.964Z,3.96
2023-03-27T20:31:26.432Z,3.82
2023-03-27T20:33:52.843Z,4.00
2023-03-27T20:36:19.528Z,3.87
2023-03-27T20:38:46.108Z,3.78
2023-03-27T20:41:12.467Z,4.20
2023-03-27T20:43:38.770Z,4.00
2023-03-27T20:46:05.510Z,3.86
2023-03-27T20:48:31.923Z,3.86
2023-03-27T20:50:58.312Z,4.01
2023-03-27T20:53:25.859Z,4.13
2023-03-27T20:56:00.443Z,4.13
2023-03-27T20:58:27.370Z,3.96
2023-03-27T21:00:55.406Z,3.78
2023-03-27T21:03:22.408Z,3.99
2023-03-27T21:05:48.981Z,3.66
2023-03-27T21:08:15.429Z,3.58
2023-03-27T21:10:41.944Z,3.47
2023-03-27T21:13:08.481Z,3.66
2023-03-27T21:15:34.859Z,3.64
2023-03-27T21:18:01.832Z,3.70
2023-03-27T21:20:28.496Z,3.73
2023-03-27T21:22:54.944Z,4.05
2023-03-27T21:25:22.422Z,4.07
2023-03-27T21:27:49.244Z,3.92
2023-03-27T21:30:16.551Z,3.67
2023-03-27T21:32:43.192Z,3.69
2023-03-27T21:35:10.107Z,3.83
2023-03-27T21:37:36.876Z,3.77
2023-03-27T21:40:03.815Z,3.73
2023-03-27T21:42:30.608Z,3.64
2023-03-27T21:44:57.436Z,3.67
2023-03-27T21:47:29.579Z,3.90
2023-03-27T21:50:01.308Z,4.02
2023-03-27T21:52:27.721Z,4.03
2023-03-27T21:55:02.872Z,4.30
2023-03-27T21:57:30.181Z,4.06
2023-03-27T21:59:56.674Z,4.02
2023-03-27T22:02:23.105Z,3.56
2023-03-27T22:04:49.483Z,3.84
2023-03-27T22:07:15.881Z,4.18
2023-03-27T22:09:44.154Z,4.42
2023-03-27T22:12:10.624Z,4.46
2023-03-27T22:14:36.940Z,4.38
2023-03-27T22:17:03.679Z,4.36
2023-03-27T22:19:30.164Z,4.05
2023-03-27T22:21:56.471Z,4.25
2023-03-27T22:24:23.076Z,4.17
2023-03-27T22:26:49.478Z,4.35
2023-03-27T22:29:15.799Z,4.21
2023-03-27T22:31:42.283Z,4.22
2023-03-27T22:34:08.982Z,4.32
2023-03-27T22:36:35.368Z,4.32
2023-03-27T22:39:03.313Z,4.31
2023-03-27T22:41:29.616Z,4.12
2023-03-27T22:43:56.130Z,4.04
2023-03-27T22:46:23.670Z,4.39
2023-03-27T22:48:54.718Z,4.32
2023-03-27T22:51:21.325Z,4.25
2023-03-27T22:53:48.049Z,4.38
2023-03-27T22:56:14.480Z,4.41
2023-03-27T22:58:41.040Z,4.28
2023-03-27T23:01:07.885Z,4.12
2023-03-27T23:03:34.374Z,3.92
2023-03-27T23:06:01.081Z,3.98
2023-03-27T23:08:28.098Z,4.09
2023-03-27T23:11:02.908Z,4.28
2023-03-27T23:13:31.773Z,4.51
2023-03-27T23:15:58.771Z,4.38
2023-03-27T23:18:25.463Z,4.27
2023-03-27T23:20:56.926Z,4.32
2023-03-27T23:23:23.969Z,4.22
2023-03-27T23:25:50.639Z,4.00
2023-03-27T23:28:17.094Z,3.94
2023-03-27T23:30:43.421Z,3.90
2023-03-27T23:33:11.262Z,3.93
2023-03-27T23:35:37.869Z,3.94
2023-03-27T23:38:04.356Z,4.20
2023-03-27T23:40:34.675Z,4.17
2023-03-27T23:43:01.377Z,4.14
2023-03-27T23:45:27.811Z,4.08
2023-03-27T23:47:54.367Z,4.19
2023-03-27T23:50:20.804Z,4.14
2023-03-27T23:52:47.172Z,4.01
2023-03-27T23:55:13.624Z,4.02
2023-03-27T23:57:40.023Z,4.02
